sensor_id;sensor_type;location;lat;lon;timestamp;P1;durP1;ratioP1;P2;durP2;ratioP2
67757;SDS011;54562;47.620;18.786;2023-03-12T00:01:25;6.40;;;3.40;;
67757;SDS011;54562;47.620;18.786;2023-03-12T00:04:33;8.20;;;3.70;;
67757;SDS011;54562;47.620;18.786;2023-03-12T00:07:38;6.90;;;3.80;;
67757;SDS011;54562;47.620;18.786;2023-03-12T00:10:43;6.00;;;3.50;;
67757;SDS011;54562;47.620;18.786;2023-03-12T00:13:50;6.80;;;3.80;;
67757;SDS011;54562;47.620;18.786;2023-03-12T00:16:55;6.50;;;3.60;;
67757;SDS011;54562;47.620;18.786;2023-03-12T00:20:01;6.00;;;3.30;;
67757;SDS011;54562;47.620;18.786;2023-03-12T00:23:07;7.20;;;3.50;;
67757;SDS011;54562;47.620;18.786;2023-03-12T00:26:13;6.30;;;3.10;;
67757;SDS011;54562;47.620;18.786;2023-03-12T00:29:19;6.20;;;3.50;;
67757;SDS011;54562;47.620;18.786;2023-03-12T00:32:24;6.20;;;3.50;;
67757;SDS011;54562;47.620;18.786;2023-03-12T00:35:29;5.40;;;3.10;;
67757;SDS011;54562;47.620;18.786;2023-03-12T00:38:35;5.50;;;3.10;;
67757;SDS011;54562;47.620;18.786;2023-03-12T00:41:41;5.40;;;2.80;;
67757;SDS011;54562;47.620;18.786;2023-03-12T00:44:46;6.80;;;3.90;;
67757;SDS011;54562;47.620;18.786;2023-03-12T00:47:51;7.30;;;3.90;;
67757;SDS011;54562;47.620;18.786;2023-03-12T00:50:56;7.80;;;4.10;;
67757;SDS011;54562;47.620;18.786;2023-03-12T00:54:02;8.10;;;3.80;;
67757;SDS011;54562;47.620;18.786;2023-03-12T00:57:07;6.20;;;3.70;;
67757;SDS011;54562;47.620;18.786;2023-03-12T01:00:13;7.10;;;3.90;;
67757;SDS011;54562;47.620;18.786;2023-03-12T01:03:19;7.70;;;3.90;;
67757;SDS011;54562;47.620;18.786;2023-03-12T01:06:24;6.60;;;3.40;;
67757;SDS011;54562;47.620;18.786;2023-03-12T01:09:29;6.50;;;3.90;;
67757;SDS011;54562;47.620;18.786;2023-03-12T01:12:34;7.70;;;3.40;;
67757;SDS011;54562;47.620;18.786;2023-03-12T01:15:39;6.00;;;3.60;;
67757;SDS011;54562;47.620;18.786;2023-03-12T01:18:44;6.70;;;3.90;;
67757;SDS011;54562;47.620;18.786;2023-03-12T01:21:48;6.30;;;3.70;;
67757;SDS011;54562;47.620;18.786;2023-03-12T01:24:53;7.40;;;4.20;;
67757;SDS011;54562;47.620;18.786;2023-03-12T01:27:58;6.70;;;3.70;;
67757;SDS011;54562;47.620;18.786;2023-03-12T01:31:07;7.40;;;4.20;;
67757;SDS011;54562;47.620;18.786;2023-03-12T01:34:13;8.30;;;4.20;;
67757;SDS011;54562;47.620;18.786;2023-03-12T01:37:18;7.10;;;3.90;;
67757;SDS011;54562;47.620;18.786;2023-03-12T01:40:23;8.50;;;4.70;;
67757;SDS011;54562;47.620;18.786;2023-03-12T01:43:33;8.90;;;4.80;;
67757;SDS011;54562;47.620;18.786;2023-03-12T01:46:40;7.80;;;4.50;;
67757;SDS011;54562;47.620;18.786;2023-03-12T01:49:46;8.30;;;5.00;;
67757;SDS011;54562;47.620;18.786;2023-03-12T01:52:52;9.30;;;4.90;;
67757;SDS011;54562;47.620;18.786;2023-03-12T01:55:58;8.80;;;5.10;;
67757;SDS011;54562;47.620;18.786;2023-03-12T01:59:11;8.30;;;4.90;;
67757;SDS011;54562;47.620;18.786;2023-03-12T02:02:20;10.00;;;5.20;;
67757;SDS011;54562;47.620;18.786;2023-03-12T02:05:32;8.50;;;4.50;;
67757;SDS011;54562;47.620;18.786;2023-03-12T02:08:47;8.90;;;5.00;;
67757;SDS011;54562;47.620;18.786;2023-03-12T02:11:53;8.70;;;5.00;;
67757;SDS011;54562;47.620;18.786;2023-03-12T02:14:58;8.70;;;5.00;;
67757;SDS011;54562;47.620;18.786;2023-03-12T02:18:03;9.60;;;5.40;;
67757;SDS011;54562;47.620;18.786;2023-03-12T02:21:14;10.30;;;5.10;;
67757;SDS011;54562;47.620;18.786;2023-03-12T02:24:29;10.70;;;5.00;;
67757;SDS011;54562;47.620;18.786;2023-03-12T02:27:39;8.70;;;5.10;;
67757;SDS011;54562;47.620;18.786;2023-03-12T02:30:47;9.00;;;5.10;;
67757;SDS011;54562;47.620;18.786;2023-03-12T02:33:56;9.30;;;4.80;;
67757;SDS011;54562;47.620;18.786;2023-03-12T02:37:02;8.20;;;4.70;;
67757;SDS011;54562;47.620;18.786;2023-03-12T02:40:14;9.10;;;5.20;;
67757;SDS011;54562;47.620;18.786;2023-03-12T02:43:25;7.90;;;4.50;;
67757;SDS011;54562;47.620;18.786;2023-03-12T02:46:33;8.50;;;5.00;;
67757;SDS011;54562;47.620;18.786;2023-03-12T02:49:38;8.30;;;4.80;;
67757;SDS011;54562;47.620;18.786;2023-03-12T02:52:43;9.40;;;5.20;;
67757;SDS011;54562;47.620;18.786;2023-03-12T02:55:48;9.60;;;5.60;;
67757;SDS011;54562;47.620;18.786;2023-03-12T02:58:53;8.80;;;4.80;;
67757;SDS011;54562;47.620;18.786;2023-03-12T03:01:59;9.60;;;5.60;;
67757;SDS011;54562;47.620;18.786;2023-03-12T03:05:07;8.80;;;4.90;;
67757;SDS011;54562;47.620;18.786;2023-03-12T03:08:13;9.10;;;5.30;;
67757;SDS011;54562;47.620;18.786;2023-03-12T03:11:18;9.50;;;5.40;;
67757;SDS011;54562;47.620;18.786;2023-03-12T03:14:26;10.30;;;5.30;;
67757;SDS011;54562;47.620;18.786;2023-03-12T03:17:30;10.70;;;6.20;;
67757;SDS011;54562;47.620;18.786;2023-03-12T03:20:35;9.10;;;5.20;;
67757;SDS011;54562;47.620;18.786;2023-03-12T03:23:41;9.60;;;5.70;;
67757;SDS011;54562;47.620;18.786;2023-03-12T03:26:46;10.10;;;5.70;;
67757;SDS011;54562;47.620;18.786;2023-03-12T03:29:50;10.40;;;5.80;;
67757;SDS011;54562;47.620;18.786;2023-03-12T03:32:56;9.10;;;5.10;;
67757;SDS011;54562;47.620;18.786;2023-03-12T03:36:01;9.00;;;5.50;;
67757;SDS011;54562;47.620;18.786;2023-03-12T03:39:08;11.60;;;5.40;;
67757;SDS011;54562;47.620;18.786;2023-03-12T03:42:13;8.40;;;5.00;;
67757;SDS011;54562;47.620;18.786;2023-03-12T03:45:19;11.10;;;6.40;;
67757;SDS011;54562;47.620;18.786;2023-03-12T03:48:24;11.00;;;5.70;;
67757;SDS011;54562;47.620;18.786;2023-03-12T03:51:29;10.70;;;5.70;;
67757;SDS011;54562;47.620;18.786;2023-03-12T03:54:34;9.60;;;5.50;;
67757;SDS011;54562;47.620;18.786;2023-03-12T03:57:40;10.10;;;5.80;;
67757;SDS011;54562;47.620;18.786;2023-03-12T04:00:45;10.20;;;5.80;;
67757;SDS011;54562;47.620;18.786;2023-03-12T04:03:50;11.40;;;5.60;;
67757;SDS011;54562;47.620;18.786;2023-03-12T04:06:55;11.40;;;6.00;;
67757;SDS011;54562;47.620;18.786;2023-03-12T04:10:00;8.50;;;4.70;;
67757;SDS011;54562;47.620;18.786;2023-03-12T04:13:05;10.40;;;5.80;;
67757;SDS011;54562;47.620;18.786;2023-03-12T04:16:11;10.40;;;5.70;;
67757;SDS011;54562;47.620;18.786;2023-03-12T04:19:17;9.80;;;5.60;;
67757;SDS011;54562;47.620;18.786;2023-03-12T04:22:21;12.40;;;5.70;;
67757;SDS011;54562;47.620;18.786;2023-03-12T04:25:26;10.20;;;5.60;;
67757;SDS011;54562;47.620;18.786;2023-03-12T04:28:32;10.60;;;5.80;;
67757;SDS011;54562;47.620;18.786;2023-03-12T04:31:37;12.10;;;5.70;;
67757;SDS011;54562;47.620;18.786;2023-03-12T04:34:42;9.90;;;5.80;;
67757;SDS011;54562;47.620;18.786;2023-03-12T04:37:46;12.10;;;6.60;;
67757;SDS011;54562;47.620;18.786;2023-03-12T04:40:58;9.90;;;5.60;;
67757;SDS011;54562;47.620;18.786;2023-03-12T04:44:04;11.00;;;5.70;;
67757;SDS011;54562;47.620;18.786;2023-03-12T04:47:09;11.00;;;5.80;;
67757;SDS011;54562;47.620;18.786;2023-03-12T04:50:14;13.10;;;6.40;;
67757;SDS011;54562;47.620;18.786;2023-03-12T04:53:19;10.60;;;5.60;;
67757;SDS011;54562;47.620;18.786;2023-03-12T04:56:24;12.10;;;6.40;;
67757;SDS011;54562;47.620;18.786;2023-03-12T04:59:29;13.20;;;6.70;;
67757;SDS011;54562;47.620;18.786;2023-03-12T05:02:34;11.80;;;6.10;;
67757;SDS011;54562;47.620;18.786;2023-03-12T05:05:40;13.20;;;7.50;;
67757;SDS011;54562;47.620;18.786;2023-03-12T05:08:45;11.90;;;6.70;;
67757;SDS011;54562;47.620;18.786;2023-03-12T05:11:50;12.60;;;6.80;;
67757;SDS011;54562;47.620;18.786;2023-03-12T05:14:55;11.50;;;6.10;;
67757;SDS011;54562;47.620;18.786;2023-03-12T05:18:00;12.30;;;6.40;;
67757;SDS011;54562;47.620;18.786;2023-03-12T05:21:08;10.70;;;6.10;;
67757;SDS011;54562;47.620;18.786;2023-03-12T05:24:15;10.40;;;5.70;;
67757;SDS011;54562;47.620;18.786;2023-03-12T05:27:20;10.50;;;5.80;;
67757;SDS011;54562;47.620;18.786;2023-03-12T05:30:28;11.20;;;5.90;;
67757;SDS011;54562;47.620;18.786;2023-03-12T05:33:32;11.00;;;5.70;;
67757;SDS011;54562;47.620;18.786;2023-03-12T05:36:37;12.60;;;5.80;;
67757;SDS011;54562;47.620;18.786;2023-03-12T05:39:42;12.50;;;6.00;;
67757;SDS011;54562;47.620;18.786;2023-03-12T05:42:49;14.20;;;6.40;;
67757;SDS011;54562;47.620;18.786;2023-03-12T05:45:56;11.90;;;6.50;;
67757;SDS011;54562;47.620;18.786;2023-03-12T05:49:03;12.70;;;6.20;;
67757;SDS011;54562;47.620;18.786;2023-03-12T05:52:08;11.50;;;6.30;;
67757;SDS011;54562;47.620;18.786;2023-03-12T05:55:13;10.50;;;5.90;;
67757;SDS011;54562;47.620;18.786;2023-03-12T05:58:17;11.00;;;6.00;;
67757;SDS011;54562;47.620;18.786;2023-03-12T06:01:25;9.90;;;5.50;;
67757;SDS011;54562;47.620;18.786;2023-03-12T06:04:30;14.20;;;6.90;;
67757;SDS011;54562;47.620;18.786;2023-03-12T06:07:36;12.10;;;6.10;;
67757;SDS011;54562;47.620;18.786;2023-03-12T06:10:41;11.70;;;6.40;;
67757;SDS011;54562;47.620;18.786;2023-03-12T06:13:46;10.70;;;5.50;;
67757;SDS011;54562;47.620;18.786;2023-03-12T06:16:51;10.90;;;6.40;;
67757;SDS011;54562;47.620;18.786;2023-03-12T06:19:56;9.90;;;5.40;;
67757;SDS011;54562;47.620;18.786;2023-03-12T06:23:01;12.30;;;6.50;;
67757;SDS011;54562;47.620;18.786;2023-03-12T06:26:07;10.80;;;6.30;;
67757;SDS011;54562;47.620;18.786;2023-03-12T06:29:12;11.10;;;5.90;;
67757;SDS011;54562;47.620;18.786;2023-03-12T06:32:17;12.20;;;6.80;;
67757;SDS011;54562;47.620;18.786;2023-03-12T06:35:22;11.50;;;6.50;;
67757;SDS011;54562;47.620;18.786;2023-03-12T06:38:28;11.30;;;5.70;;
67757;SDS011;54562;47.620;18.786;2023-03-12T06:41:32;9.80;;;5.10;;
67757;SDS011;54562;47.620;18.786;2023-03-12T06:44:37;10.50;;;5.70;;
67757;SDS011;54562;47.620;18.786;2023-03-12T06:47:42;12.60;;;6.50;;
67757;SDS011;54562;47.620;18.786;2023-03-12T06:50:47;12.60;;;6.60;;
67757;SDS011;54562;47.620;18.786;2023-03-12T06:53:52;12.10;;;6.90;;
67757;SDS011;54562;47.620;18.786;2023-03-12T06:56:56;11.80;;;7.40;;
67757;SDS011;54562;47.620;18.786;2023-03-12T07:00:01;12.00;;;6.60;;
67757;SDS011;54562;47.620;18.786;2023-03-12T07:03:07;11.80;;;5.70;;
67757;SDS011;54562;47.620;18.786;2023-03-12T07:06:14;10.90;;;6.20;;
67757;SDS011;54562;47.620;18.786;2023-03-12T07:09:21;12.30;;;7.00;;
67757;SDS011;54562;47.620;18.786;2023-03-12T07:12:26;14.40;;;6.80;;
67757;SDS011;54562;47.620;18.786;2023-03-12T07:15:31;13.50;;;6.30;;
67757;SDS011;54562;47.620;18.786;2023-03-12T07:18:37;9.80;;;5.20;;
67757;SDS011;54562;47.620;18.786;2023-03-12T07:21:45;10.40;;;5.80;;
67757;SDS011;54562;47.620;18.786;2023-03-12T07:24:50;11.30;;;5.50;;
67757;SDS011;54562;47.620;18.786;2023-03-12T07:27:54;10.10;;;4.90;;
67757;SDS011;54562;47.620;18.786;2023-03-12T07:31:03;10.90;;;6.30;;
67757;SDS011;54562;47.620;18.786;2023-03-12T07:34:08;9.60;;;5.40;;
67757;SDS011;54562;47.620;18.786;2023-03-12T07:37:13;10.70;;;6.30;;
67757;SDS011;54562;47.620;18.786;2023-03-12T07:40:18;11.00;;;6.20;;
67757;SDS011;54562;47.620;18.786;2023-03-12T07:43:23;12.30;;;6.60;;
67757;SDS011;54562;47.620;18.786;2023-03-12T07:46:28;11.30;;;6.40;;
67757;SDS011;54562;47.620;18.786;2023-03-12T07:49:33;11.90;;;6.80;;
67757;SDS011;54562;47.620;18.786;2023-03-12T07:52:39;11.10;;;5.70;;
67757;SDS011;54562;47.620;18.786;2023-03-12T07:55:45;10.80;;;5.50;;
67757;SDS011;54562;47.620;18.786;2023-03-12T07:58:50;12.10;;;6.60;;
67757;SDS011;54562;47.620;18.786;2023-03-12T08:01:55;12.60;;;7.50;;
67757;SDS011;54562;47.620;18.786;2023-03-12T08:05:01;9.60;;;5.20;;
67757;SDS011;54562;47.620;18.786;2023-03-12T08:08:06;10.90;;;5.60;;
67757;SDS011;54562;47.620;18.786;2023-03-12T08:11:12;12.00;;;6.50;;
67757;SDS011;54562;47.620;18.786;2023-03-12T08:14:17;10.80;;;6.20;;
67757;SDS011;54562;47.620;18.786;2023-03-12T08:17:21;11.40;;;6.40;;
67757;SDS011;54562;47.620;18.786;2023-03-12T08:20:29;11.20;;;6.50;;
67757;SDS011;54562;47.620;18.786;2023-03-12T08:23:34;12.10;;;6.10;;
67757;SDS011;54562;47.620;18.786;2023-03-12T08:26:39;9.30;;;5.60;;
67757;SDS011;54562;47.620;18.786;2023-03-12T08:29:44;10.90;;;5.30;;
67757;SDS011;54562;47.620;18.786;2023-03-12T08:32:49;11.70;;;6.10;;
67757;SDS011;54562;47.620;18.786;2023-03-12T08:35:54;9.80;;;5.50;;
67757;SDS011;54562;47.620;18.786;2023-03-12T08:38:59;11.10;;;6.40;;
67757;SDS011;54562;47.620;18.786;2023-03-12T08:42:05;11.10;;;6.20;;
67757;SDS011;54562;47.620;18.786;2023-03-12T08:45:11;10.10;;;5.20;;
67757;SDS011;54562;47.620;18.786;2023-03-12T08:48:17;10.10;;;5.80;;
67757;SDS011;54562;47.620;18.786;2023-03-12T08:51:22;9.90;;;5.70;;
67757;SDS011;54562;47.620;18.786;2023-03-12T08:54:27;9.30;;;4.70;;
67757;SDS011;54562;47.620;18.786;2023-03-12T08:57:32;10.60;;;6.10;;
67757;SDS011;54562;47.620;18.786;2023-03-12T09:00:39;10.50;;;4.40;;
67757;SDS011;54562;47.620;18.786;2023-03-12T09:03:44;9.70;;;5.00;;
67757;SDS011;54562;47.620;18.786;2023-03-12T09:06:52;10.30;;;5.80;;
67757;SDS011;54562;47.620;18.786;2023-03-12T09:09:56;8.50;;;4.50;;
67757;SDS011;54562;47.620;18.786;2023-03-12T09:13:02;8.80;;;5.40;;
67757;SDS011;54562;47.620;18.786;2023-03-12T09:16:08;10.70;;;5.70;;
67757;SDS011;54562;47.620;18.786;2023-03-12T09:19:13;9.10;;;5.30;;
67757;SDS011;54562;47.620;18.786;2023-03-12T09:22:18;8.40;;;4.70;;
67757;SDS011;54562;47.620;18.786;2023-03-12T09:25:24;8.60;;;4.70;;
67757;SDS011;54562;47.620;18.786;2023-03-12T09:28:28;8.40;;;4.70;;
67757;SDS011;54562;47.620;18.786;2023-03-12T09:31:33;9.70;;;4.70;;
67757;SDS011;54562;47.620;18.786;2023-03-12T09:34:39;7.80;;;4.40;;
67757;SDS011;54562;47.620;18.786;2023-03-12T09:37:47;9.10;;;4.70;;
67757;SDS011;54562;47.620;18.786;2023-03-12T09:40:54;7.20;;;3.70;;
67757;SDS011;54562;47.620;18.786;2023-03-12T09:44:03;6.20;;;3.30;;
67757;SDS011;54562;47.620;18.786;2023-03-12T09:47:21;7.90;;;4.40;;
67757;SDS011;54562;47.620;18.786;2023-03-12T09:50:32;8.80;;;3.80;;
67757;SDS011;54562;47.620;18.786;2023-03-12T09:53:44;7.50;;;4.30;;
67757;SDS011;54562;47.620;18.786;2023-03-12T09:56:52;8.40;;;4.40;;
67757;SDS011;54562;47.620;18.786;2023-03-12T10:00:01;7.50;;;4.10;;
67757;SDS011;54562;47.620;18.786;2023-03-12T10:03:33;8.60;;;5.10;;
67757;SDS011;54562;47.620;18.786;2023-03-12T10:07:01;13.00;;;4.90;;
67757;SDS011;54562;47.620;18.786;2023-03-12T10:10:29;8.20;;;4.50;;
67757;SDS011;54562;47.620;18.786;2023-03-12T10:13:56;9.40;;;5.30;;
67757;SDS011;54562;47.620;18.786;2023-03-12T10:17:22;8.30;;;5.00;;
67757;SDS011;54562;47.620;18.786;2023-03-12T10:20:49;8.00;;;4.50;;
67757;SDS011;54562;47.620;18.786;2023-03-12T10:24:09;8.30;;;4.40;;
67757;SDS011;54562;47.620;18.786;2023-03-12T10:27:30;8.50;;;4.50;;
67757;SDS011;54562;47.620;18.786;2023-03-12T10:30:42;7.40;;;4.10;;
67757;SDS011;54562;47.620;18.786;2023-03-12T10:33:54;7.80;;;4.50;;
67757;SDS011;54562;47.620;18.786;2023-03-12T10:37:04;8.70;;;4.60;;
67757;SDS011;54562;47.620;18.786;2023-03-12T10:40:18;10.20;;;5.60;;
67757;SDS011;54562;47.620;18.786;2023-03-12T10:43:25;8.60;;;4.60;;
67757;SDS011;54562;47.620;18.786;2023-03-12T10:46:46;9.40;;;4.30;;
67757;SDS011;54562;47.620;18.786;2023-03-12T10:50:12;7.20;;;4.00;;
67757;SDS011;54562;47.620;18.786;2023-03-12T10:53:22;8.20;;;4.30;;
67757;SDS011;54562;47.620;18.786;2023-03-12T10:56:48;6.60;;;3.40;;
67757;SDS011;54562;47.620;18.786;2023-03-12T11:00:04;6.20;;;3.30;;
67757;SDS011;54562;47.620;18.786;2023-03-12T11:03:20;9.60;;;4.90;;
67757;SDS011;54562;47.620;18.786;2023-03-12T11:06:27;7.30;;;4.10;;
67757;SDS011;54562;47.620;18.786;2023-03-12T11:09:33;6.90;;;3.40;;
67757;SDS011;54562;47.620;18.786;2023-03-12T11:12:50;7.20;;;3.90;;
67757;SDS011;54562;47.620;18.786;2023-03-12T11:15:59;7.30;;;3.40;;
67757;SDS011;54562;47.620;18.786;2023-03-12T11:19:05;6.20;;;2.90;;
67757;SDS011;54562;47.620;18.786;2023-03-12T11:22:27;5.90;;;2.90;;
67757;SDS011;54562;47.620;18.786;2023-03-12T11:25:33;5.90;;;2.40;;
67757;SDS011;54562;47.620;18.786;2023-03-12T11:28:40;7.90;;;4.30;;
67757;SDS011;54562;47.620;18.786;2023-03-12T11:31:56;5.90;;;3.00;;
67757;SDS011;54562;47.620;18.786;2023-03-12T11:35:11;6.50;;;3.40;;
67757;SDS011;54562;47.620;18.786;2023-03-12T11:38:19;6.90;;;3.50;;
67757;SDS011;54562;47.620;18.786;2023-03-12T11:41:37;7.70;;;3.30;;
67757;SDS011;54562;47.620;18.786;2023-03-12T11:44:59;7.70;;;4.20;;
67757;SDS011;54562;47.620;18.786;2023-03-12T11:48:17;6.50;;;3.30;;
67757;SDS011;54562;47.620;18.786;2023-03-12T11:51:37;6.30;;;3.10;;
67757;SDS011;54562;47.620;18.786;2023-03-12T11:59:04;6.20;;;2.90;;
67757;SDS011;54562;47.620;18.786;2023-03-12T12:06:10;7.00;;;3.60;;
67757;SDS011;54562;47.620;18.786;2023-03-12T12:09:27;6.80;;;3.70;;
67757;SDS011;54562;47.620;18.786;2023-03-12T12:12:48;6.50;;;3.40;;
67757;SDS011;54562;47.620;18.786;2023-03-12T12:16:14;7.30;;;3.50;;
67757;SDS011;54562;47.620;18.786;2023-03-12T12:19:41;7.10;;;3.30;;
67757;SDS011;54562;47.620;18.786;2023-03-12T12:23:01;7.20;;;3.20;;
67757;SDS011;54562;47.620;18.786;2023-03-12T12:26:19;6.30;;;3.10;;
67757;SDS011;54562;47.620;18.786;2023-03-12T12:29:47;6.50;;;3.00;;
67757;SDS011;54562;47.620;18.786;2023-03-12T12:33:17;5.30;;;2.50;;
67757;SDS011;54562;47.620;18.786;2023-03-12T12:36:34;5.00;;;2.50;;
67757;SDS011;54562;47.620;18.786;2023-03-12T12:39:41;5.90;;;2.70;;
67757;SDS011;54562;47.620;18.786;2023-03-12T12:43:04;7.20;;;2.60;;
67757;SDS011;54562;47.620;18.786;2023-03-12T12:46:21;5.20;;;2.50;;
67757;SDS011;54562;47.620;18.786;2023-03-12T12:49:32;4.60;;;1.80;;
67757;SDS011;54562;47.620;18.786;2023-03-12T12:52:48;5.20;;;2.50;;
67757;SDS011;54562;47.620;18.786;2023-03-12T12:56:02;5.40;;;2.60;;
67757;SDS011;54562;47.620;18.786;2023-03-12T12:59:30;5.30;;;2.50;;
67757;SDS011;54562;47.620;18.786;2023-03-12T13:02:41;5.50;;;2.60;;
67757;SDS011;54562;47.620;18.786;2023-03-12T13:05:57;5.60;;;2.80;;
67757;SDS011;54562;47.620;18.786;2023-03-12T13:09:15;5.90;;;2.60;;
67757;SDS011;54562;47.620;18.786;2023-03-12T13:12:29;5.80;;;2.90;;
67757;SDS011;54562;47.620;18.786;2023-03-12T13:15:37;6.90;;;3.30;;
67757;SDS011;54562;47.620;18.786;2023-03-12T13:18:56;6.30;;;2.90;;
67757;SDS011;54562;47.620;18.786;2023-03-12T13:22:13;6.20;;;2.90;;
67757;SDS011;54562;47.620;18.786;2023-03-12T13:25:29;6.60;;;2.60;;
67757;SDS011;54562;47.620;18.786;2023-03-12T13:28:59;6.50;;;2.50;;
67757;SDS011;54562;47.620;18.786;2023-03-12T13:33:04;5.50;;;2.50;;
67757;SDS011;54562;47.620;18.786;2023-03-12T13:36:22;5.40;;;2.60;;
67757;SDS011;54562;47.620;18.786;2023-03-12T13:39:30;6.80;;;2.50;;
67757;SDS011;54562;47.620;18.786;2023-03-12T13:42:38;6.40;;;2.90;;
67757;SDS011;54562;47.620;18.786;2023-03-12T13:45:57;6.30;;;2.40;;
67757;SDS011;54562;47.620;18.786;2023-03-12T13:49:10;6.40;;;2.70;;
67757;SDS011;54562;47.620;18.786;2023-03-12T13:52:24;7.90;;;2.70;;
67757;SDS011;54562;47.620;18.786;2023-03-12T13:55:34;8.60;;;2.70;;
67757;SDS011;54562;47.620;18.786;2023-03-12T13:58:46;7.30;;;2.60;;
67757;SDS011;54562;47.620;18.786;2023-03-12T14:01:56;5.50;;;2.80;;
67757;SDS011;54562;47.620;18.786;2023-03-12T14:05:08;5.90;;;2.90;;
67757;SDS011;54562;47.620;18.786;2023-03-12T14:08:37;5.80;;;2.80;;
67757;SDS011;54562;47.620;18.786;2023-03-12T14:11:59;7.20;;;3.00;;
67757;SDS011;54562;47.620;18.786;2023-03-12T14:15:17;6.20;;;3.10;;
67757;SDS011;54562;47.620;18.786;2023-03-12T14:18:29;6.30;;;3.30;;
67757;SDS011;54562;47.620;18.786;2023-03-12T14:21:38;6.70;;;3.20;;
67757;SDS011;54562;47.620;18.786;2023-03-12T14:24:50;6.90;;;3.30;;
67757;SDS011;54562;47.620;18.786;2023-03-12T14:28:00;6.00;;;3.10;;
67757;SDS011;54562;47.620;18.786;2023-03-12T14:31:10;6.60;;;3.20;;
67757;SDS011;54562;47.620;18.786;2023-03-12T14:34:19;5.50;;;2.80;;
67757;SDS011;54562;47.620;18.786;2023-03-12T14:37:29;5.80;;;2.70;;
67757;SDS011;54562;47.620;18.786;2023-03-12T14:40:42;6.80;;;3.00;;
67757;SDS011;54562;47.620;18.786;2023-03-12T14:43:53;5.90;;;2.70;;
67757;SDS011;54562;47.620;18.786;2023-03-12T14:47:07;6.10;;;3.00;;
67757;SDS011;54562;47.620;18.786;2023-03-12T14:50:18;6.10;;;2.80;;
67757;SDS011;54562;47.620;18.786;2023-03-12T14:53:27;6.90;;;3.00;;
67757;SDS011;54562;47.620;18.786;2023-03-12T14:56:34;6.20;;;3.00;;
67757;SDS011;54562;47.620;18.786;2023-03-12T14:59:39;7.60;;;3.70;;
67757;SDS011;54562;47.620;18.786;2023-03-12T15:02:44;6.70;;;3.10;;
67757;SDS011;54562;47.620;18.786;2023-03-12T15:05:50;6.50;;;3.20;;
67757;SDS011;54562;47.620;18.786;2023-03-12T15:08:56;5.80;;;2.80;;
67757;SDS011;54562;47.620;18.786;2023-03-12T15:12:05;6.90;;;2.90;;
67757;SDS011;54562;47.620;18.786;2023-03-12T15:15:25;6.80;;;2.90;;
67757;SDS011;54562;47.620;18.786;2023-03-12T15:18:38;5.50;;;2.50;;
67757;SDS011;54562;47.620;18.786;2023-03-12T15:21:44;7.10;;;3.20;;
67757;SDS011;54562;47.620;18.786;2023-03-12T15:24:50;11.10;;;2.70;;
67757;SDS011;54562;47.620;18.786;2023-03-12T15:28:04;7.50;;;3.30;;
67757;SDS011;54562;47.620;18.786;2023-03-12T15:31:13;7.50;;;3.60;;
67757;SDS011;54562;47.620;18.786;2023-03-12T15:34:28;7.10;;;3.30;;
67757;SDS011;54562;47.620;18.786;2023-03-12T15:37:37;6.50;;;3.10;;
67757;SDS011;54562;47.620;18.786;2023-03-12T15:40:47;13.60;;;3.90;;
67757;SDS011;54562;47.620;18.786;2023-03-12T15:43:55;11.60;;;3.50;;
67757;SDS011;54562;47.620;18.786;2023-03-12T15:47:08;8.60;;;4.40;;
67757;SDS011;54562;47.620;18.786;2023-03-12T15:50:20;7.30;;;3.50;;
67757;SDS011;54562;47.620;18.786;2023-03-12T15:53:30;7.70;;;3.90;;
67757;SDS011;54562;47.620;18.786;2023-03-12T15:56:36;7.60;;;4.00;;
67757;SDS011;54562;47.620;18.786;2023-03-12T15:59:41;9.80;;;4.20;;
67757;SDS011;54562;47.620;18.786;2023-03-12T16:02:51;7.80;;;4.00;;
67757;SDS011;54562;47.620;18.786;2023-03-12T16:05:58;7.90;;;4.10;;
67757;SDS011;54562;47.620;18.786;2023-03-12T16:09:04;9.90;;;5.00;;
67757;SDS011;54562;47.620;18.786;2023-03-12T16:12:10;11.00;;;4.80;;
67757;SDS011;54562;47.620;18.786;2023-03-12T16:15:17;9.90;;;5.20;;
67757;SDS011;54562;47.620;18.786;2023-03-12T16:18:27;11.90;;;6.40;;
67757;SDS011;54562;47.620;18.786;2023-03-12T16:21:31;18.40;;;9.00;;
67757;SDS011;54562;47.620;18.786;2023-03-12T16:24:37;20.40;;;11.20;;
67757;SDS011;54562;47.620;18.786;2023-03-12T16:27:45;16.40;;;7.70;;
67757;SDS011;54562;47.620;18.786;2023-03-12T16:30:53;37.10;;;21.60;;
67757;SDS011;54562;47.620;18.786;2023-03-12T16:33:58;34.30;;;19.50;;
67757;SDS011;54562;47.620;18.786;2023-03-12T16:37:03;32.10;;;17.50;;
67757;SDS011;54562;47.620;18.786;2023-03-12T16:40:11;28.80;;;16.20;;
67757;SDS011;54562;47.620;18.786;2023-03-12T16:43:35;25.20;;;14.30;;
67757;SDS011;54562;47.620;18.786;2023-03-12T16:46:40;21.90;;;12.00;;
67757;SDS011;54562;47.620;18.786;2023-03-12T16:49:48;19.20;;;9.70;;
67757;SDS011;54562;47.620;18.786;2023-03-12T16:52:53;20.70;;;9.80;;
67757;SDS011;54562;47.620;18.786;2023-03-12T16:56:01;23.10;;;10.10;;
67757;SDS011;54562;47.620;18.786;2023-03-12T16:59:21;17.60;;;9.40;;
67757;SDS011;54562;47.620;18.786;2023-03-12T17:02:28;19.40;;;10.00;;
67757;SDS011;54562;47.620;18.786;2023-03-12T17:05:33;26.90;;;11.90;;
67757;SDS011;54562;47.620;18.786;2023-03-12T17:08:42;26.70;;;12.80;;
67757;SDS011;54562;47.620;18.786;2023-03-12T17:11:49;24.40;;;11.80;;
67757;SDS011;54562;47.620;18.786;2023-03-12T17:14:55;23.80;;;11.60;;
67757;SDS011;54562;47.620;18.786;2023-03-12T17:18:01;41.70;;;20.20;;
67757;SDS011;54562;47.620;18.786;2023-03-12T17:21:08;39.20;;;19.90;;
67757;SDS011;54562;47.620;18.786;2023-03-12T17:24:14;45.80;;;23.70;;
67757;SDS011;54562;47.620;18.786;2023-03-12T17:27:20;48.20;;;27.70;;
67757;SDS011;54562;47.620;18.786;2023-03-12T17:30:26;43.90;;;24.40;;
67757;SDS011;54562;47.620;18.786;2023-03-12T17:33:33;38.30;;;21.20;;
67757;SDS011;54562;47.620;18.786;2023-03-12T17:36:40;22.90;;;12.50;;
67757;SDS011;54562;47.620;18.786;2023-03-12T17:39:45;20.50;;;11.40;;
67757;SDS011;54562;47.620;18.786;2023-03-12T17:42:51;19.60;;;10.30;;
67757;SDS011;54562;47.620;18.786;2023-03-12T17:45:57;15.00;;;8.80;;
67757;SDS011;54562;47.620;18.786;2023-03-12T17:49:08;16.60;;;9.10;;
67757;SDS011;54562;47.620;18.786;2023-03-12T17:52:14;14.30;;;8.20;;
67757;SDS011;54562;47.620;18.786;2023-03-12T17:55:19;12.00;;;6.60;;
67757;SDS011;54562;47.620;18.786;2023-03-12T17:58:23;11.10;;;6.20;;
67757;SDS011;54562;47.620;18.786;2023-03-12T18:01:29;13.40;;;6.70;;
67757;SDS011;54562;47.620;18.786;2023-03-12T18:04:34;19.40;;;7.40;;
67757;SDS011;54562;47.620;18.786;2023-03-12T18:07:39;13.50;;;6.90;;
67757;SDS011;54562;47.620;18.786;2023-03-12T18:10:47;12.70;;;6.60;;
67757;SDS011;54562;47.620;18.786;2023-03-12T18:13:53;11.20;;;6.70;;
67757;SDS011;54562;47.620;18.786;2023-03-12T18:16:59;10.50;;;6.30;;
67757;SDS011;54562;47.620;18.786;2023-03-12T18:20:05;11.60;;;6.40;;
67757;SDS011;54562;47.620;18.786;2023-03-12T18:23:15;15.40;;;6.10;;
67757;SDS011;54562;47.620;18.786;2023-03-12T18:26:21;11.10;;;5.40;;
67757;SDS011;54562;47.620;18.786;2023-03-12T18:29:27;10.10;;;5.40;;
67757;SDS011;54562;47.620;18.786;2023-03-12T18:32:34;9.20;;;5.20;;
67757;SDS011;54562;47.620;18.786;2023-03-12T18:35:41;8.80;;;5.30;;
67757;SDS011;54562;47.620;18.786;2023-03-12T18:38:47;9.60;;;5.40;;
67757;SDS011;54562;47.620;18.786;2023-03-12T18:41:54;8.60;;;5.30;;